createdAt,value
2022-11-16T00:15:53.834Z,205.60
2022-11-16T00:37:17.172Z,144.75
2022-11-16T00:40:02.980Z,146.82
2022-11-16T00:42:48.765Z,169.32
2022-11-16T01:19:17.636Z,168.50
2022-11-16T01:22:03.847Z,141.57
2022-11-16T01:24:49.870Z,141.07
2022-11-16T01:33:28.926Z,184.50
2022-11-16T01:36:15.477Z,145.05
2022-11-16T01:39:02.753Z,150.93
2022-11-16T02:01:48.375Z,137.23
2022-11-16T02:04:34.322Z,129.27
2022-11-16T02:31:17.913Z,148.77
2022-11-16T02:34:05.945Z,133.77
2022-11-16T02:36:58.895Z,134.40
2022-11-16T02:39:48.573Z,117.97
2022-11-16T02:42:44.574Z,143.57
2022-11-16T02:45:33.397Z,117.63
2022-11-16T02:48:34.128Z,130.75
2022-11-16T02:51:21.379Z,124.70
2022-11-16T02:54:16.388Z,119.15
2022-11-16T02:57:05.483Z,122.13
2022-11-16T02:59:55.668Z,129.10
2022-11-16T03:03:20.209Z,127.30
2022-11-16T03:09:01.023Z,105.95
2022-11-16T03:14:56.798Z,105.90
2022-11-16T03:17:45.194Z,92.80
2022-11-16T03:20:34.085Z,92.50
2022-11-16T03:23:20.100Z,102.70
2022-11-16T03:26:08.581Z,102.40
2022-11-16T03:29:05.429Z,93.32
2022-11-16T03:31:54.600Z,94.10
2022-11-16T03:34:42.087Z,109.75
2022-11-16T03:37:28.739Z,85.53
2022-11-16T03:40:17.520Z,87.28
2022-11-16T03:43:04.141Z,103.25
2022-11-16T03:45:50.514Z,95.13
2022-11-16T03:48:38.919Z,77.25
2022-11-16T03:51:31.278Z,84.00
2022-11-16T03:54:16.980Z,84.20
2022-11-16T03:57:03.727Z,81.38
2022-11-16T03:59:49.746Z,70.95
2022-11-16T04:02:35.516Z,83.93
2022-11-16T04:05:40.603Z,90.05
2022-11-16T04:08:45.848Z,76.53
2022-11-16T04:11:51.461Z,74.57
2022-11-16T04:14:55.949Z,79.28
2022-11-16T04:18:02.009Z,68.22
2022-11-16T04:21:06.534Z,83.78
2022-11-16T04:24:11.096Z,73.90
2022-11-16T04:27:18.338Z,66.63
2022-11-16T04:30:05.086Z,66.20
2022-11-16T04:33:11.942Z,75.13
2022-11-16T04:36:20.611Z,70.57
2022-11-16T04:39:06.959Z,68.15
2022-11-16T04:42:11.853Z,70.93
2022-11-16T04:45:16.945Z,65.55
2022-11-16T04:48:10.421Z,77.03
2022-11-16T04:50:57.241Z,69.38
2022-11-16T04:53:43.741Z,75.78
2022-11-16T04:56:37.399Z,78.85
2022-11-16T04:59:24.423Z,67.35
2022-11-16T05:02:11.491Z,68.63
2022-11-16T05:15:07.569Z,59.88
2022-11-16T05:17:55.768Z,67.07
2022-11-16T05:25:14.538Z,55.72
2022-11-16T06:19:31.055Z,53.22
2022-11-16T06:22:36.897Z,58.08
2022-11-16T06:25:23.194Z,60.95
2022-11-16T06:37:26.590Z,50.55
2022-11-16T06:40:14.033Z,56.30
2022-11-16T06:43:02.981Z,58.97
2022-11-16T06:45:50.774Z,57.25
2022-11-16T06:48:37.277Z,58.03
2022-11-16T06:51:27.730Z,53.42
2022-11-16T06:57:22.761Z,60.20
2022-11-16T07:00:10.792Z,64.03
2022-11-16T07:02:57.339Z,58.83
2022-11-16T07:05:43.181Z,54.97
2022-11-16T07:08:33.515Z,62.20
2022-11-16T07:11:20.386Z,53.78
2022-11-16T07:14:06.871Z,55.72
2022-11-16T07:16:59.078Z,63.15
2022-11-16T07:19:53.595Z,62.13
2022-11-16T07:22:40.020Z,52.78
2022-11-16T07:25:32.443Z,58.55
2022-11-16T07:28:18.762Z,53.85
2022-11-16T07:31:07.792Z,51.00
2022-11-16T07:33:54.123Z,59.75
2022-11-16T07:37:01.690Z,67.95
2022-11-16T07:39:47.686Z,70.80
2022-11-16T07:42:34.005Z,79.15
2022-11-16T07:50:54.929Z,78.93
2022-11-16T07:53:43.091Z,72.70
2022-11-16T07:56:29.257Z,74.93
2022-11-16T07:59:15.180Z,73.72
2022-11-16T08:02:04.590Z,76.72
2022-11-16T08:04:52.146Z,68.15
2022-11-16T08:07:43.490Z,80.82
2022-11-16T08:10:32.931Z,73.07
2022-11-16T08:13:19.127Z,73.32
2022-11-16T08:16:18.429Z,78.43
2022-11-16T08:19:06.406Z,81.75
2022-11-16T08:21:52.896Z,79.57
2022-11-16T08:24:39.319Z,120.60
2022-11-16T08:27:25.638Z,197.95
2022-11-16T08:30:14.608Z,109.03
2022-11-16T08:33:08.157Z,137.52
2022-11-16T08:35:55.180Z,99.57
2022-11-16T08:38:41.231Z,96.88
2022-11-16T08:41:27.506Z,92.65
2022-11-16T08:44:15.465Z,87.63
2022-11-16T08:47:04.586Z,92.28
2022-11-16T08:49:56.002Z,94.22
2022-11-16T08:52:45.551Z,189.00
2022-11-16T08:55:32.975Z,188.73
2022-11-16T08:58:19.021Z,279.55
2022-11-16T09:01:14.027Z,177.70
2022-11-16T09:04:00.680Z,109.22
2022-11-16T09:06:46.552Z,122.40
2022-11-16T09:09:32.407Z,127.93
2022-11-16T09:12:18.568Z,163.65
2022-11-16T09:15:06.171Z,120.93
2022-11-16T09:17:54.909Z,102.43
2022-11-16T09:20:45.577Z,123.28
2022-11-16T09:23:31.269Z,118.15
2022-11-16T09:26:20.940Z,110.72
2022-11-16T09:29:07.334Z,120.22
2022-11-16T09:31:53.796Z,117.68
2022-11-16T09:34:39.752Z,186.30
2022-11-16T09:37:25.693Z,91.82
2022-11-16T09:40:12.629Z,97.70
2022-11-16T09:43:28.959Z,69.55
2022-11-16T09:46:32.693Z,72.93
2022-11-16T09:49:26.144Z,109.70
2022-11-16T09:52:34.752Z,97.25
2022-11-16T09:55:26.143Z,161.38
2022-11-16T09:58:16.626Z,76.88
2022-11-16T10:01:15.130Z,60.22
2022-11-16T10:04:38.422Z,74.55
2022-11-16T10:07:42.064Z,55.63
2022-11-16T10:10:34.927Z,61.28
2022-11-16T10:13:50.955Z,62.53
2022-11-16T10:16:46.039Z,64.88
2022-11-16T10:19:49.464Z,63.45
2022-11-16T10:23:02.538Z,63.30
2022-11-16T10:25:54.463Z,54.47
2022-11-16T10:29:17.137Z,61.92
2022-11-16T10:32:12.485Z,56.15
2022-11-16T10:35:43.719Z,66.40
2022-11-16T10:38:31.137Z,58.60
2022-11-16T10:41:43.468Z,59.20
2022-11-16T10:44:58.721Z,49.42
2022-11-16T10:48:00.642Z,37.65
2022-11-16T10:50:48.088Z,54.17
2022-11-16T10:53:38.882Z,63.28
2022-11-16T10:56:32.024Z,64.65
2022-11-16T10:59:21.195Z,65.53
2022-11-16T11:02:34.843Z,70.60
2022-11-16T11:05:21.388Z,58.15
2022-11-16T11:08:11.369Z,51.67
2022-11-16T11:11:01.963Z,55.67
2022-11-16T11:13:47.668Z,52.45
2022-11-16T11:16:33.787Z,51.28
2022-11-16T11:19:25.710Z,49.67
2022-11-16T11:22:14.437Z,69.13
2022-11-16T11:25:01.957Z,65.50
2022-11-16T11:27:48.096Z,44.33
2022-11-16T11:30:34.397Z,42.15
2022-11-16T11:33:23.858Z,38.97
2022-11-16T11:36:19.226Z,34.75
2022-11-16T11:39:06.610Z,32.53
2022-11-16T11:42:25.150Z,28.08
2022-11-16T11:45:13.334Z,30.08
2022-11-16T11:48:36.850Z,31.08
2022-11-16T11:51:40.679Z,25.33
2022-11-16T11:54:29.558Z,23.02
2022-11-16T11:57:20.725Z,25.20
2022-11-16T12:00:08.672Z,21.63
2022-11-16T12:03:51.440Z,25.52
2022-11-16T12:06:52.728Z,21.33
2022-11-16T12:10:25.515Z,22.90
2022-11-16T12:13:41.590Z,25.20
2022-11-16T12:16:59.680Z,25.20
2022-11-16T12:20:08.406Z,20.17
2022-11-16T12:23:04.357Z,26.27
2022-11-16T12:25:56.425Z,25.23
2022-11-16T12:29:10.390Z,23.95
2022-11-16T12:33:17.520Z,37.35
2022-11-16T12:36:24.282Z,48.70
2022-11-16T12:43:46.523Z,31.55
2022-11-16T12:51:41.858Z,20.05
2022-11-16T12:55:28.006Z,18.60
2022-11-16T12:58:17.563Z,29.08
2022-11-16T13:01:45.780Z,30.08
2022-11-16T13:04:42.163Z,29.80
2022-11-16T13:07:33.359Z,11.02
2022-11-16T13:10:27.009Z,19.42
2022-11-16T13:13:40.112Z,25.60
2022-11-16T13:16:26.403Z,33.28
2022-11-16T13:19:13.817Z,40.03
2022-11-16T13:22:41.192Z,49.35
2022-11-16T13:26:10.594Z,28.08
2022-11-16T13:29:27.871Z,32.88
2022-11-16T13:32:22.702Z,50.05
2022-11-16T13:35:14.238Z,42.15
2022-11-16T13:38:02.262Z,33.85
2022-11-16T13:40:48.014Z,34.92
2022-11-16T13:43:33.893Z,33.65
2022-11-16T13:46:53.768Z,26.15
2022-11-16T13:50:13.473Z,26.35
2022-11-16T13:54:10.951Z,32.22
2022-11-16T13:56:52.989Z,39.30
2022-11-16T13:59:39.176Z,30.90
2022-11-16T14:02:31.633Z,30.48
2022-11-16T14:05:29.649Z,36.15
2022-11-16T14:08:24.461Z,35.47
2022-11-16T14:11:39.728Z,48.55
2022-11-16T14:15:18.594Z,43.70
2022-11-16T14:18:07.555Z,41.92
2022-11-16T14:21:09.756Z,40.13
2022-11-16T14:23:55.847Z,32.65
2022-11-16T14:26:59.284Z,34.63
2022-11-16T14:30:05.726Z,36.60
2022-11-16T14:32:53.692Z,74.05
2022-11-16T14:35:40.217Z,42.90
2022-11-16T14:38:37.998Z,45.20
2022-11-16T14:41:25.030Z,74.85
2022-11-16T14:44:11.734Z,36.30
2022-11-16T14:46:57.951Z,43.40
2022-11-16T14:49:46.848Z,38.38
2022-11-16T14:52:38.935Z,50.67
2022-11-16T14:55:27.906Z,48.10
2022-11-16T14:58:23.295Z,42.92
2022-11-16T15:01:14.431Z,41.50
2022-11-16T15:04:02.776Z,44.28
2022-11-16T15:06:55.608Z,37.45
2022-11-16T15:09:44.952Z,43.50
2022-11-16T15:12:44.834Z,46.28
2022-11-16T15:15:31.839Z,63.50
2022-11-16T15:18:21.000Z,59.92
2022-11-16T15:21:22.791Z,42.28
2022-11-16T15:24:35.669Z,69.13
2022-11-16T15:27:37.055Z,39.90
2022-11-16T15:30:40.895Z,35.03
2022-11-16T15:38:35.189Z,34.65
2022-11-16T15:41:33.292Z,31.35
2022-11-16T15:47:43.424Z,27.85
2022-11-16T15:50:35.154Z,24.35
2022-11-16T15:53:42.947Z,36.42
2022-11-16T15:56:33.098Z,35.90
2022-11-16T15:59:28.711Z,42.58
2022-11-16T16:02:21.506Z,39.17
2022-11-16T16:05:07.868Z,23.63
2022-11-16T16:07:59.586Z,25.70
2022-11-16T16:10:45.522Z,20.17
2022-11-16T16:13:45.655Z,23.00
2022-11-16T16:16:40.047Z,25.63
2022-11-16T16:20:20.988Z,31.75
2022-11-16T16:23:10.570Z,26.70
2022-11-16T16:26:05.359Z,16.20
2022-11-16T16:28:52.880Z,16.85
2022-11-16T16:31:39.404Z,24.42
2022-11-16T16:34:25.423Z,22.70
2022-11-16T16:37:12.224Z,22.00
2022-11-16T16:39:59.250Z,23.17
2022-11-16T16:42:48.163Z,25.75
2022-11-16T16:46:09.735Z,21.13
2022-11-16T16:48:55.708Z,24.27
2022-11-16T16:52:46.248Z,28.90
2022-11-16T16:55:43.439Z,39.65
2022-11-16T16:58:29.387Z,36.95
2022-11-16T17:01:15.641Z,39.13
2022-11-16T17:04:01.430Z,44.08
2022-11-16T17:06:48.092Z,40.65
2022-11-16T17:09:34.072Z,36.78
2022-11-16T17:12:19.963Z,37.45
2022-11-16T17:15:06.567Z,35.78
2022-11-16T17:17:52.970Z,42.50
2022-11-16T17:20:45.318Z,36.42
2022-11-16T17:23:32.401Z,47.70
2022-11-16T17:26:20.275Z,44.08
2022-11-16T17:29:06.449Z,47.45
2022-11-16T17:31:52.547Z,47.33
2022-11-16T17:34:41.481Z,44.67
2022-11-16T17:37:27.339Z,42.88
2022-11-16T17:40:13.931Z,48.80
2022-11-16T17:42:59.932Z,50.03
2022-11-16T17:45:45.924Z,49.00
2022-11-16T17:48:31.964Z,49.97
2022-11-16T17:51:20.090Z,51.55
2022-11-16T17:54:06.518Z,57.30
2022-11-16T17:56:52.797Z,55.15
2022-11-16T17:59:38.939Z,56.05
2022-11-16T18:02:25.813Z,51.90
2022-11-16T18:05:11.979Z,46.22
2022-11-16T18:07:58.080Z,53.08
2022-11-16T18:10:44.686Z,52.50
2022-11-16T18:13:30.580Z,53.58
2022-11-16T18:16:18.226Z,49.28
2022-11-16T18:19:06.001Z,51.95
2022-11-16T18:21:52.154Z,48.60
2022-11-16T18:24:38.036Z,48.40
2022-11-16T18:27:23.854Z,51.00
2022-11-16T18:30:10.351Z,49.90
2022-11-16T18:32:56.364Z,44.05
2022-11-16T18:35:43.010Z,47.97
2022-11-16T18:38:28.991Z,54.88
2022-11-16T18:41:19.646Z,54.63
2022-11-16T18:44:06.329Z,57.63
2022-11-16T18:46:52.162Z,57.53
2022-11-16T18:49:38.045Z,53.50
2022-11-16T18:52:23.859Z,54.75
2022-11-16T18:55:10.084Z,46.92
2022-11-16T18:57:56.283Z,49.83
2022-11-16T19:00:45.464Z,46.97
2022-11-16T19:03:32.291Z,43.00
2022-11-16T19:06:18.793Z,37.67
2022-11-16T19:09:06.357Z,46.85
2022-11-16T19:11:52.357Z,41.17
2022-11-16T19:14:39.347Z,46.58
2022-11-16T19:17:27.002Z,41.53
2022-11-16T19:20:13.698Z,39.97
2022-11-16T19:22:59.524Z,45.22
2022-11-16T19:25:46.024Z,41.10
2022-11-16T19:28:36.962Z,42.22
2022-11-16T19:31:28.791Z,41.97
2022-11-16T19:34:15.147Z,51.20
2022-11-16T19:37:01.199Z,34.10
2022-11-16T19:39:47.411Z,43.13
2022-11-16T19:42:33.371Z,34.13
2022-11-16T19:45:22.317Z,30.75
2022-11-16T19:48:08.465Z,42.38
2022-11-16T19:50:54.268Z,39.22
2022-11-16T19:53:40.512Z,42.35
2022-11-16T19:56:26.774Z,29.33
2022-11-16T19:59:12.761Z,30.98
2022-11-16T20:01:59.008Z,34.05
2022-11-16T20:04:45.625Z,35.90
2022-11-16T20:07:32.414Z,36.78
2022-11-16T20:10:18.827Z,30.13
2022-11-16T20:13:05.171Z,31.48
2022-11-16T20:15:51.122Z,33.65
2022-11-16T20:18:38.622Z,37.55
2022-11-16T20:21:35.546Z,35.17
2022-11-16T20:24:23.717Z,35.17
2022-11-16T20:27:09.783Z,35.40
2022-11-16T20:29:55.600Z,34.83
2022-11-16T20:32:41.655Z,21.13
2022-11-16T20:35:27.749Z,30.27
2022-11-16T20:38:15.155Z,27.13
2022-11-16T20:41:11.136Z,26.75
2022-11-16T20:43:58.483Z,26.30
2022-11-16T20:46:45.277Z,28.45
2022-11-16T20:49:31.390Z,32.58
2022-11-16T20:52:17.217Z,33.33
2022-11-16T20:55:03.472Z,26.75
2022-11-16T20:57:49.685Z,27.25
2022-11-16T21:00:35.597Z,23.55
2022-11-16T21:03:21.485Z,23.90
2022-11-16T21:06:08.873Z,28.65
2022-11-16T21:08:55.052Z,32.45
2022-11-16T21:12:00.247Z,28.48
2022-11-16T21:14:46.763Z,40.55
2022-11-16T21:17:32.705Z,35.03
2022-11-16T21:20:27.308Z,35.38
2022-11-16T21:23:16.230Z,36.00
2022-11-16T21:26:13.910Z,33.47
2022-11-16T21:29:01.894Z,31.92
2022-11-16T21:31:48.287Z,32.92
2022-11-16T21:34:39.808Z,35.03
2022-11-16T21:37:26.254Z,39.25
2022-11-16T21:40:12.980Z,35.65
2022-11-16T21:42:58.973Z,32.67
2022-11-16T21:45:46.116Z,42.35
2022-11-16T21:48:45.373Z,38.55
2022-11-16T21:51:31.520Z,38.33
2022-11-16T21:54:17.444Z,45.03
2022-11-16T21:57:03.309Z,42.15
2022-11-16T21:59:49.399Z,41.30
2022-11-16T22:02:35.159Z,40.08
2022-11-16T22:05:39.394Z,33.30
2022-11-16T22:08:25.685Z,36.47
2022-11-16T22:11:12.187Z,33.47
2022-11-16T22:13:57.803Z,42.03
2022-11-16T22:16:43.544Z,36.58
2022-11-16T22:19:29.301Z,37.50
2022-11-16T22:22:16.440Z,41.95
2022-11-16T22:25:02.875Z,36.83
2022-11-16T22:28:13.796Z,39.60
2022-11-16T22:31:01.277Z,37.35
2022-11-16T22:33:52.007Z,56.70
2022-11-16T22:36:37.928Z,47.15
2022-11-16T22:39:23.909Z,47.70
2022-11-16T22:42:10.230Z,46.45
2022-11-16T22:44:55.842Z,42.42
2022-11-16T22:47:41.578Z,41.75
2022-11-16T22:50:27.502Z,45.88
2022-11-16T22:53:13.300Z,44.05
2022-11-16T22:56:07.395Z,45.72
2022-11-16T22:58:53.578Z,43.25
2022-11-16T23:01:39.675Z,43.50
2022-11-16T23:04:25.866Z,43.72
2022-11-16T23:07:11.945Z,48.47
2022-11-16T23:09:57.938Z,57.63
2022-11-16T23:13:03.232Z,50.97
2022-11-16T23:15:49.294Z,51.58
2022-11-16T23:18:35.468Z,45.08
2022-11-16T23:21:40.279Z,46.17
2022-11-16T23:24:46.121Z,42.95
2022-11-16T23:27:40.122Z,37.10
2022-11-16T23:30:26.642Z,40.13
2022-11-16T23:33:12.502Z,39.58
2022-11-16T23:35:58.858Z,38.22
2022-11-16T23:38:44.970Z,40.78
2022-11-16T23:41:51.482Z,44.08
2022-11-16T23:44:37.728Z,42.92
2022-11-16T23:47:23.684Z,59.72
2022-11-16T23:50:10.129Z,52.00
2022-11-16T23:52:55.940Z,43.97
2022-11-16T23:55:41.896Z,36.78
2022-11-16T23:58:27.640Z,41.25
